Loomis, Washington
Current Conditions -  °F | °C
As of 4:53 AM on Wednesday 26 Nov 2014 (Local Time) from KOMK Reporting Station
Light Snow Light Snow  
Wind Chill: 32°   Ceiling: 900
Heat Index: 32°   Visibility: 0.5mi
Dew Point: 31°   Wind: 0mph
Humidity: 96%   Direction: NA
Pressure: 30.16"   Gusts: NA
Location:  48.82°N, 119.64°W
Report Text: KOMK 261253Z AUTO 00000KT 1/2SM -SN FG VV009 00/M01 A3016 RMK AO2 SNB42 SLP229 P0000 T00001006
Loading
Personal Weather Stations






























Interactive Weather Map New forecast layout! Learn more

10-Day Weather Forecast

Advertisements
Track Severe Weather on mobile